Time,TemperatureF,DewpointF,PressureIn,WindDirection,WindDirectionDegrees,WindSpeedMPH,WindSpeedGustMPH,Humidity,HourlyPrecipIn,Conditions,Clouds,dailyrainin,SolarRadiationWatts/m^2,SoftwareType,DateUTC
2013-07-03 00:03:00,66.7,66.0,29.98,NNE,23,2.0,-999.0,96,-99.99,,,0.00,0,weatherlink.com 1.10,2013-07-03 04:03:00,
2013-07-03 00:18:00,66.6,66.0,29.97,NE,44,3.0,-999.0,97,-99.99,,,0.00,0,weatherlink.com 1.10,2013-07-03 04:18:00,
2013-07-03 00:33:00,66.5,66.0,29.97,ENE,62,3.0,-999.0,97,-99.99,,,0.00,0,weatherlink.com 1.10,2013-07-03 04:33:00,
2013-07-03 00:48:00,66.4,66.0,29.97,NE,39,4.0,-999.0,97,-99.99,,,0.00,0,weatherlink.com 1.10,2013-07-03 04:48:00,
2013-07-03 01:03:00,66.1,65.0,29.97,ENE,60,1.0,-999.0,96,-99.99,,,0.01,0,weatherlink.com 1.10,2013-07-03 05:03:00,
2013-07-03 01:18:00,65.9,65.0,29.97,NE,52,2.0,-999.0,97,-99.99,,,0.01,0,weatherlink.com 1.10,2013-07-03 05:18:00,
2013-07-03 01:33:00,65.8,65.0,29.97,ENE,77,2.0,-999.0,97,-99.99,,,0.01,0,weatherlink.com 1.10,2013-07-03 05:33:00,
2013-07-03 01:48:00,65.9,65.0,29.97,ENE,65,0.0,-999.0,97,-99.99,,,0.01,0,weatherlink.com 1.10,2013-07-03 05:48:00,
2013-07-03 02:18:00,65.5,65.0,29.97,SE,125,0.0,-999.0,97,-99.99,,,0.01,0,weatherlink.com 1.10,2013-07-03 06:18:00,
2013-07-03 05:27:00,65.0,65.0,29.98,South,189,0.0,-999.0,98,-99.99,,,0.01,0,weatherlink.com 1.10,2013-07-03 09:27:00,
2013-07-03 05:33:00,65.0,65.0,29.98,South,169,0.0,-999.0,98,-99.99,,,0.01,0,weatherlink.com 1.10,2013-07-03 09:33:00,
2013-07-03 06:18:00,65.1,64.0,29.99,South,189,0.0,-999.0,97,-99.99,,,0.01,0,weatherlink.com 1.10,2013-07-03 10:18:00,
2013-07-03 06:33:00,65.2,64.0,30.00,South,180,0.0,-999.0,97,-99.99,,,0.01,5,weatherlink.com 1.10,2013-07-03 10:33:00,
2013-07-03 06:48:00,65.2,64.0,30.00,South,174,0.0,-999.0,97,-99.99,,,0.01,18,weatherlink.com 1.10,2013-07-03 10:48:00,
2013-07-03 07:33:00,65.2,64.0,30.01,South,169,0.0,-999.0,97,-99.99,,,0.01,44,weatherlink.com 1.10,2013-07-03 11:33:00,
2013-07-03 07:48:00,65.1,64.0,30.01,South,174,0.0,-999.0,97,-99.99,,,0.01,79,weatherlink.com 1.10,2013-07-03 11:48:00,
2013-07-03 08:18:00,65.4,65.0,30.02,South,179,0.0,-999.0,97,-99.99,,,0.01,90,weatherlink.com 1.10,2013-07-03 12:18:00,
2013-07-03 08:33:00,65.6,65.0,30.02,South,179,0.0,-999.0,97,-99.99,,,0.01,105,weatherlink.com 1.10,2013-07-03 12:33:00,
2013-07-03 08:48:00,65.8,65.0,30.03,SSW,201,0.0,-999.0,96,-99.99,,,0.01,104,weatherlink.com 1.10,2013-07-03 12:48:00,
2013-07-03 09:33:00,66.6,65.0,30.03,South,189,0.0,-999.0,95,-99.99,,,0.01,237,weatherlink.com 1.10,2013-07-03 13:33:00,
2013-07-03 09:48:00,67.4,66.0,30.04,South,191,0.0,-999.0,94,-99.99,,,0.01,239,weatherlink.com 1.10,2013-07-03 13:48:00,
2013-07-03 10:03:00,68.5,67.0,30.04,South,173,0.0,-999.0,93,-99.99,,,0.01,332,weatherlink.com 1.10,2013-07-03 14:03:00,
2013-07-03 10:18:00,69.2,67.0,30.04,SSE,156,0.0,-999.0,91,-99.99,,,0.01,738,weatherlink.com 1.10,2013-07-03 14:18:00,
2013-07-03 10:33:00,69.9,67.0,30.04,South,175,0.0,-999.0,89,-99.99,,,0.01,276,weatherlink.com 1.10,2013-07-03 14:33:00,
2013-07-03 10:48:00,71.0,67.0,30.04,SSE,168,4.0,-999.0,88,-99.99,,,0.01,366,weatherlink.com 1.10,2013-07-03 14:48:00,
2013-07-03 11:03:00,71.2,67.0,30.04,SSE,165,10.0,-999.0,87,-99.99,,,0.01,269,weatherlink.com 1.10,2013-07-03 15:03:00,
2013-07-03 11:18:00,72.6,68.0,30.04,South,188,7.0,-999.0,85,-99.99,,,0.01,779,weatherlink.com 1.10,2013-07-03 15:18:00,
2013-07-03 11:33:00,73.0,67.0,30.04,South,179,7.0,-999.0,82,-99.99,,,0.01,353,weatherlink.com 1.10,2013-07-03 15:33:00,
2013-07-03 11:48:00,73.2,67.0,30.04,South,172,11.0,-999.0,80,-99.99,,,0.01,278,weatherlink.com 1.10,2013-07-03 15:48:00,
2013-07-03 12:03:00,73.1,68.0,30.04,SSW,195,9.0,-999.0,85,-99.99,,,0.01,835,weatherlink.com 1.10,2013-07-03 16:03:00,
2013-07-03 12:18:00,74.4,66.0,30.03,SSE,166,16.0,-999.0,76,-99.99,,,0.01,882,weatherlink.com 1.10,2013-07-03 16:18:00,
2013-07-03 12:33:00,74.1,66.0,30.03,South,190,18.0,-999.0,77,-99.99,,,0.01,886,weatherlink.com 1.10,2013-07-03 16:33:00,
2013-07-03 12:48:00,74.2,66.0,30.03,SSW,199,12.0,-999.0,75,-99.99,,,0.01,935,weatherlink.com 1.10,2013-07-03 16:48:00,
2013-07-03 13:03:00,74.6,66.0,30.03,South,184,12.0,-999.0,75,-99.99,,,0.01,979,weatherlink.com 1.10,2013-07-03 17:03:00,
2013-07-03 13:18:00,74.3,65.0,30.03,South,187,15.0,-999.0,73,-99.99,,,0.01,236,weatherlink.com 1.10,2013-07-03 17:18:00,
2013-07-03 13:33:00,75.4,67.0,30.03,South,180,15.0,-999.0,76,-99.99,,,0.01,921,weatherlink.com 1.10,2013-07-03 17:33:00,
2013-07-03 13:48:00,75.5,67.0,30.03,South,190,11.0,-999.0,76,-99.99,,,0.01,1037,weatherlink.com 1.10,2013-07-03 17:48:00,
2013-07-03 14:03:00,75.2,66.0,30.03,South,174,12.0,-999.0,72,-99.99,,,0.01,972,weatherlink.com 1.10,2013-07-03 18:03:00,
2013-07-03 14:18:00,74.8,65.0,30.03,South,185,11.0,-999.0,72,-99.99,,,0.01,376,weatherlink.com 1.10,2013-07-03 18:18:00,
2013-07-03 14:33:00,75.6,66.0,30.03,SSW,195,12.0,-999.0,73,-99.99,,,0.01,329,weatherlink.com 1.10,2013-07-03 18:33:00,
2013-07-03 14:48:00,74.9,67.0,30.03,SSW,204,12.0,-999.0,75,-99.99,,,0.01,1034,weatherlink.com 1.10,2013-07-03 18:48:00,
2013-07-03 15:18:00,75.3,66.0,30.03,South,177,10.0,-999.0,72,-99.99,,,0.01,318,weatherlink.com 1.10,2013-07-03 19:18:00,
2013-07-03 15:33:00,75.8,67.0,30.03,South,181,13.0,-999.0,74,-99.99,,,0.01,329,weatherlink.com 1.10,2013-07-03 19:33:00,
2013-07-03 15:48:00,76.2,67.0,30.03,SSW,207,9.0,-999.0,73,-99.99,,,0.01,694,weatherlink.com 1.10,2013-07-03 19:48:00,
2013-07-03 16:32:00,76.7,66.0,30.02,SSW,199,17.0,-999.0,70,-99.99,,,0.01,754,weatherlink.com 1.10,2013-07-03 20:32:00,
2013-07-03 16:47:00,77.0,66.0,30.01,South,190,14.0,-999.0,68,-99.99,,,0.01,710,weatherlink.com 1.10,2013-07-03 20:47:00,
2013-07-03 17:02:00,77.4,65.0,30.01,SSW,200,12.0,-999.0,66,-99.99,,,0.01,726,weatherlink.com 1.10,2013-07-03 21:02:00,
2013-07-03 17:17:00,78.1,66.0,30.01,SSW,200,11.0,-999.0,67,-99.99,,,0.01,765,weatherlink.com 1.10,2013-07-03 21:17:00,
2013-07-03 17:32:00,77.2,65.0,30.01,South,169,11.0,-999.0,65,-99.99,,,0.01,141,weatherlink.com 1.10,2013-07-03 21:32:00,
2013-07-03 17:47:00,77.5,66.0,30.01,South,184,8.0,-999.0,67,-99.99,,,0.01,480,weatherlink.com 1.10,2013-07-03 21:47:00,
2013-07-03 18:17:00,76.9,66.0,30.00,SSW,199,8.0,-999.0,68,-99.99,,,0.01,399,weatherlink.com 1.10,2013-07-03 22:17:00,
2013-07-03 18:32:00,76.2,65.0,29.99,South,191,7.0,-999.0,69,-99.99,,,0.01,352,weatherlink.com 1.10,2013-07-03 22:32:00,
2013-07-03 18:47:00,77.0,66.0,30.00,SSW,202,9.0,-999.0,69,-99.99,,,0.01,74,weatherlink.com 1.10,2013-07-03 22:47:00,
2013-07-03 19:02:00,75.8,66.0,30.00,South,187,7.0,-999.0,72,-99.99,,,0.01,197,weatherlink.com 1.10,2013-07-03 23:02:00,
2013-07-03 19:32:00,76.3,65.0,30.00,SSW,198,8.0,-999.0,69,-99.99,,,0.01,148,weatherlink.com 1.10,2013-07-03 23:32:00,
2013-07-03 19:47:00,75.8,66.0,30.00,South,181,5.0,-999.0,72,-99.99,,,0.01,98,weatherlink.com 1.10,2013-07-03 23:47:00,
2013-07-03 20:02:00,75.1,66.0,30.00,SSW,195,4.0,-999.0,74,-99.99,,,0.01,90,weatherlink.com 1.10,2013-07-04 00:02:00,
2013-07-03 20:17:00,74.6,67.0,30.00,South,187,4.0,-999.0,77,-99.99,,,0.01,74,weatherlink.com 1.10,2013-07-04 00:17:00,
2013-07-03 20:32:00,74.2,66.0,30.00,South,191,4.0,-999.0,76,-99.99,,,0.01,58,weatherlink.com 1.10,2013-07-04 00:32:00,
2013-07-03 20:47:00,73.9,66.0,30.01,SSW,195,4.0,-999.0,76,-99.99,,,0.01,44,weatherlink.com 1.10,2013-07-04 00:47:00,
2013-07-03 21:02:00,73.3,66.0,30.01,SW,221,1.0,-999.0,77,-99.99,,,0.01,16,weatherlink.com 1.10,2013-07-04 01:02:00,
2013-07-03 21:17:00,72.9,66.0,30.02,SW,220,2.0,-999.0,78,-99.99,,,0.01,5,weatherlink.com 1.10,2013-07-04 01:17:00,
2013-07-03 21:32:00,72.1,66.0,30.02,WSW,245,1.0,-999.0,81,-99.99,,,0.01,0,weatherlink.com 1.10,2013-07-04 01:32:00,
2013-07-03 21:47:00,71.5,66.0,30.02,WSW,245,1.0,-999.0,82,-99.99,,,0.01,0,weatherlink.com 1.10,2013-07-04 01:47:00,
2013-07-03 22:03:00,71.0,66.0,30.03,WSW,256,0.0,-999.0,83,-99.99,,,0.01,0,weatherlink.com 1.10,2013-07-04 02:03:00,
2013-07-03 22:17:00,70.5,66.0,30.03,WSW,256,0.0,-999.0,84,-99.99,,,0.01,0,weatherlink.com 1.10,2013-07-04 02:17:00,
2013-07-03 22:32:00,69.8,65.0,30.04,WSW,256,0.0,-999.0,85,-99.99,,,0.01,0,weatherlink.com 1.10,2013-07-04 02:32:00,
2013-07-03 22:47:00,69.4,65.0,30.04,WSW,256,0.0,-999.0,87,-99.99,,,0.01,0,weatherlink.com 1.10,2013-07-04 02:47:00,
2013-07-03 23:17:00,68.2,65.0,30.05,WSW,256,0.0,-999.0,89,-99.99,,,0.01,0,weatherlink.com 1.10,2013-07-04 03:17:00,
2013-07-03 23:32:00,67.6,65.0,30.05,WSW,256,0.0,-999.0,90,-99.99,,,0.01,0,weatherlink.com 1.10,2013-07-04 03:32:00,
2013-07-03 23:47:00,66.9,65.0,30.05,WSW,256,0.0,-999.0,92,-99.99,,,0.01,0,weatherlink.com 1.10,2013-07-04 03:47:00,